Pagrindinis puslapis
METAR-TAF:

METAR-TAF

Oro uostai :

Karakasas, Venesuela

platuma: 10-36N, ilguma: 066-59W, Aukštis: 43 m

Dabartinis oras

Ataskaita buvo paskelbta 32 minutes, ne 12:00 UTC
Vėjas 3 kt iš Pietryčių
Temperatūra 28°C
Drėgmė 79%
Slėgis 1013 hPa
Matomumas 10 km arba daugiau
Išsisklaidę debesys ne aukštis 1600 ft

METAR: SVMI 171200Z 14003KT 9999 SCT016 28/24 Q1013

Laikas: 08:32 (12:32 UTC)

Prognozė

Ataskaita buvo paskelbta 2 valandos ir 32 minutes, ne 10:00 UTC
Prognozė galioja nuo 17 metu 12 UTC su 18 metu 12 UTC
Vėjas 3 kt iš Pietų/Pietryčių
Matomumas 10 km arba daugiau
Išsisklaidę debesys ne aukštis 1600 ft
Tapsmas
nuo 17 metu 12 UTC su 17 metu 16 UTC
Vėjas 2 kt iš Rytų/Pietryčių
Matomumas 10 km arba daugiau
Išsisklaidę debesys ne aukštis 1600 ft

TAF: SVMI 171000Z 1712/1812 16003KT 9999 SCT016 TX28/18Z TN23/06Z BECMG 1712/1716 11002KT 9999 SCT016

Orai ataskaitas ir orų prognozės (METAR, TAF).

turimą stotys yra geltonos ir raudonos taškus žemėlapyje.

Perkelti pele per norėdami pamatyti stoties vardą.

Tada spustelėkite, norėdami matyti oro stebėjimo ir prognozės.

Norėdami pakeisti žemėlapį: spustelėkite ant žalios mygtukų su juodo kryžiaus žemyn,; žalią mygtuką su brūkšneliu, jei norite nutolinti; arba žalių rodyklių gretimoms žemėlapius.


METAR-TAF: